Details From OIKB - Bandar Abbass Intl
To OMRK - Ras Al Khaimah Intl
Flight Number -
Tags Decoded
Created
Modified
Stats Distance 97 nm / 180 km
Max Altitude 0 ft / 0 m
Waypoints 2
Social Downloads 2
Likes 0
Share VATSIM

Download

Looking for another format? Having issues loading an existing format? Contact us
Advertisement - Login to hide

Notes

Decoded

Route

OIKB OMRK

ID Type Via Altitude Latitude Longitude Leg Dist Tot Dist Heading (true) Name
O OIKB APT - 0 ft / 0 m 27.20505˚ 56.36861˚ - 0 nm - -
O OMRK APT - 0 ft / 0 m 25.62974˚ 55.93391˚ 97 nm 97 nm 194° / 194° -

Altitude Profile

Advertisement - Login to hide

OIKB

Details ICAO OIKB (BND)
Name BANDAR ABBASS INTL
Region Iran
Timezone Asia/Tehran (UTC+3.5)
Stats Elevation 22 ft / 7 m (AMSL)
Location 27.218316° 56.377852°
Runways 2
Magnetic Variation 2.317° E

METAR

OIKB 171030Z 21008KT 9999 FEW025CB SCT030 22/14 Q1019 A3009

Decode

TAF

TAF OIKB 170500Z 1706/1812 36003MPS 7000 FEW025CB SCT030 BKN090 TEMPO 1706/1712 5000 TSRA BECMG 1721/1723 2000 BR BECMG 1804/1806 7000 FEW040 SCT100

Decode

Departure Runways

ID Width Length Bearing (true) Bearing (mag) Surface Threshold Offset Overrun Length
03L 98 ft / 30 m 11,370 ft / 3,466 m 27.64° 25.32° Asphalt 0 ft / 0 m 984 ft / 300 m
03R 148 ft / 45 m 12,040 ft / 3,670 m 27.64° 25.32° Asphalt 0 ft / 0 m 1,198 ft / 365 m
21L 148 ft / 45 m 12,040 ft / 3,670 m 207.65° 205.33° Asphalt 0 ft / 0 m 1,198 ft / 365 m
21R 98 ft / 30 m 11,370 ft / 3,466 m 207.64° 205.32° Asphalt 0 ft / 0 m 0 ft / 0 m

OMRK

Details ICAO OMRK (RKT)
Name RAS AL KHAIMAH INTL
Region United Arab Emirates
Timezone Asia/Dubai (UTC+4.0)
Stats Elevation 102 ft / 31 m (AMSL)
Location 25.613352° 55.938831°
Runways 1
Magnetic Variation 2.053° E

METAR

OMRK 171000Z 12015KT 9999 SCT040 FEW050CB 22/10 Q1018 A3004

Decode

TAF

TAF OMRK 170451Z 1706/1812 12009KT 8000 SCT040 PROB30 TEMPO 1706/1720 VRB20G30KT 1500 TSRA BLDU SCT040CB BECMG 1810/1812 33010KT

Decode

Destination Runways

ID Width Length Bearing (true) Bearing (mag) Surface Threshold Offset Overrun Length
16 148 ft / 45 m 12,391 ft / 3,777 m 164.83° 162.78° Asphalt 0 ft / 0 m 165 ft / 50 m
34 148 ft / 45 m 12,391 ft / 3,777 m 344.84° 342.79° Asphalt 0 ft / 0 m 165 ft / 50 m